sensor_id;sensor_type;location;lat;lon;timestamp;P1;durP1;ratioP1;P2;durP2;ratioP2
37411;SDS011;23278;52.110;6.050;2023-05-07T00:00:10;2.40;;;1.42;;
37411;SDS011;23278;52.110;6.050;2023-05-07T00:02:36;1.67;;;1.30;;
37411;SDS011;23278;52.110;6.050;2023-05-07T00:05:03;1.83;;;1.20;;
37411;SDS011;23278;52.110;6.050;2023-05-07T00:07:29;1.90;;;1.00;;
37411;SDS011;23278;52.110;6.050;2023-05-07T00:09:55;2.83;;;1.10;;
37411;SDS011;23278;52.110;6.050;2023-05-07T00:12:21;2.30;;;1.00;;
37411;SDS011;23278;52.110;6.050;2023-05-07T00:14:47;1.88;;;1.20;;
37411;SDS011;23278;52.110;6.050;2023-05-07T00:17:14;1.98;;;1.10;;
37411;SDS011;23278;52.110;6.050;2023-05-07T00:19:40;1.83;;;1.17;;
37411;SDS011;23278;52.110;6.050;2023-05-07T00:22:06;2.33;;;1.27;;
37411;SDS011;23278;52.110;6.050;2023-05-07T00:24:33;2.08;;;1.20;;
37411;SDS011;23278;52.110;6.050;2023-05-07T00:26:59;2.22;;;1.35;;
37411;SDS011;23278;52.110;6.050;2023-05-07T00:29:25;1.70;;;1.00;;
37411;SDS011;23278;52.110;6.050;2023-05-07T00:31:51;2.15;;;1.50;;
37411;SDS011;23278;52.110;6.050;2023-05-07T00:34:20;1.88;;;1.35;;
37411;SDS011;23278;52.110;6.050;2023-05-07T00:36:46;1.60;;;1.17;;
37411;SDS011;23278;52.110;6.050;2023-05-07T00:39:12;3.17;;;1.60;;
37411;SDS011;23278;52.110;6.050;2023-05-07T00:41:38;2.80;;;1.50;;
37411;SDS011;23278;52.110;6.050;2023-05-07T00:44:04;1.75;;;1.40;;
37411;SDS011;23278;52.110;6.050;2023-05-07T00:46:30;3.22;;;1.13;;
37411;SDS011;23278;52.110;6.050;2023-05-07T00:48:57;2.20;;;1.35;;
37411;SDS011;23278;52.110;6.050;2023-05-07T00:51:25;2.03;;;1.45;;
37411;SDS011;23278;52.110;6.050;2023-05-07T00:53:53;2.63;;;1.35;;
37411;SDS011;23278;52.110;6.050;2023-05-07T00:56:20;2.33;;;1.23;;
37411;SDS011;23278;52.110;6.050;2023-05-07T00:58:47;2.60;;;1.75;;
37411;SDS011;23278;52.110;6.050;2023-05-07T01:01:14;1.35;;;1.08;;
37411;SDS011;23278;52.110;6.050;2023-05-07T01:03:43;1.20;;;1.00;;
37411;SDS011;23278;52.110;6.050;2023-05-07T01:06:09;2.35;;;1.70;;
37411;SDS011;23278;52.110;6.050;2023-05-07T01:08:38;2.00;;;1.40;;
37411;SDS011;23278;52.110;6.050;2023-05-07T01:11:09;4.40;;;1.38;;
37411;SDS011;23278;52.110;6.050;2023-05-07T01:13:37;2.47;;;1.40;;
37411;SDS011;23278;52.110;6.050;2023-05-07T01:16:05;1.42;;;1.10;;
37411;SDS011;23278;52.110;6.050;2023-05-07T01:18:31;2.22;;;1.48;;
37411;SDS011;23278;52.110;6.050;2023-05-07T01:20:58;1.60;;;0.93;;
37411;SDS011;23278;52.110;6.050;2023-05-07T01:23:26;3.42;;;1.52;;
37411;SDS011;23278;52.110;6.050;2023-05-07T01:25:53;1.55;;;0.95;;
37411;SDS011;23278;52.110;6.050;2023-05-07T01:28:22;2.17;;;1.60;;
37411;SDS011;23278;52.110;6.050;2023-05-07T01:30:54;1.92;;;1.50;;
37411;SDS011;23278;52.110;6.050;2023-05-07T01:33:22;1.98;;;1.50;;
37411;SDS011;23278;52.110;6.050;2023-05-07T01:35:52;2.10;;;1.30;;
37411;SDS011;23278;52.110;6.050;2023-05-07T01:38:19;3.25;;;1.77;;
37411;SDS011;23278;52.110;6.050;2023-05-07T01:40:47;2.40;;;1.27;;
37411;SDS011;23278;52.110;6.050;2023-05-07T01:43:13;1.55;;;1.15;;
37411;SDS011;23278;52.110;6.050;2023-05-07T01:45:41;1.73;;;1.33;;
37411;SDS011;23278;52.110;6.050;2023-05-07T01:48:09;1.80;;;1.48;;
37411;SDS011;23278;52.110;6.050;2023-05-07T01:50:36;2.20;;;1.52;;
37411;SDS011;23278;52.110;6.050;2023-05-07T01:53:03;2.58;;;1.88;;
37411;SDS011;23278;52.110;6.050;2023-05-07T01:55:29;2.17;;;1.60;;
37411;SDS011;23278;52.110;6.050;2023-05-07T01:57:55;3.40;;;1.77;;
37411;SDS011;23278;52.110;6.050;2023-05-07T02:00:21;3.05;;;1.30;;
37411;SDS011;23278;52.110;6.050;2023-05-07T02:02:47;1.35;;;1.08;;
37411;SDS011;23278;52.110;6.050;2023-05-07T02:05:23;2.20;;;1.38;;
37411;SDS011;23278;52.110;6.050;2023-05-07T02:07:57;1.98;;;1.40;;
37411;SDS011;23278;52.110;6.050;2023-05-07T02:10:25;2.30;;;1.83;;
37411;SDS011;23278;52.110;6.050;2023-05-07T02:12:51;2.72;;;1.48;;
37411;SDS011;23278;52.110;6.050;2023-05-07T02:15:17;4.28;;;1.63;;
37411;SDS011;23278;52.110;6.050;2023-05-07T02:18:03;2.40;;;1.55;;
37411;SDS011;23278;52.110;6.050;2023-05-07T02:20:30;2.08;;;1.80;;
37411;SDS011;23278;52.110;6.050;2023-05-07T02:22:56;2.97;;;2.53;;
37411;SDS011;23278;52.110;6.050;2023-05-07T02:25:23;3.15;;;2.05;;
37411;SDS011;23278;52.110;6.050;2023-05-07T02:27:49;2.28;;;1.90;;
37411;SDS011;23278;52.110;6.050;2023-05-07T02:30:17;2.03;;;1.52;;
37411;SDS011;23278;52.110;6.050;2023-05-07T02:32:43;1.85;;;1.38;;
37411;SDS011;23278;52.110;6.050;2023-05-07T02:35:09;2.60;;;1.70;;
37411;SDS011;23278;52.110;6.050;2023-05-07T02:37:35;3.17;;;2.17;;
37411;SDS011;23278;52.110;6.050;2023-05-07T02:40:01;2.17;;;1.98;;
37411;SDS011;23278;52.110;6.050;2023-05-07T02:42:29;2.22;;;1.38;;
37411;SDS011;23278;52.110;6.050;2023-05-07T02:44:56;1.92;;;1.52;;
37411;SDS011;23278;52.110;6.050;2023-05-07T02:47:22;1.80;;;1.50;;
37411;SDS011;23278;52.110;6.050;2023-05-07T02:49:48;2.47;;;2.28;;
37411;SDS011;23278;52.110;6.050;2023-05-07T02:52:14;2.65;;;1.90;;
37411;SDS011;23278;52.110;6.050;2023-05-07T02:54:40;2.10;;;1.90;;
37411;SDS011;23278;52.110;6.050;2023-05-07T02:57:06;3.35;;;2.03;;
37411;SDS011;23278;52.110;6.050;2023-05-07T02:59:32;3.70;;;1.67;;
37411;SDS011;23278;52.110;6.050;2023-05-07T03:01:59;3.05;;;2.50;;
37411;SDS011;23278;52.110;6.050;2023-05-07T03:04:25;3.40;;;2.53;;
37411;SDS011;23278;52.110;6.050;2023-05-07T03:06:51;3.08;;;2.60;;
37411;SDS011;23278;52.110;6.050;2023-05-07T03:09:17;2.83;;;2.08;;
37411;SDS011;23278;52.110;6.050;2023-05-07T03:11:43;4.07;;;2.67;;
37411;SDS011;23278;52.110;6.050;2023-05-07T03:14:09;3.03;;;2.42;;
37411;SDS011;23278;52.110;6.050;2023-05-07T03:16:35;4.13;;;3.83;;
37411;SDS011;23278;52.110;6.050;2023-05-07T03:19:01;3.53;;;3.22;;
37411;SDS011;23278;52.110;6.050;2023-05-07T03:21:28;4.43;;;4.03;;
37411;SDS011;23278;52.110;6.050;2023-05-07T03:23:54;4.63;;;4.18;;
37411;SDS011;23278;52.110;6.050;2023-05-07T03:26:20;3.92;;;3.08;;
37411;SDS011;23278;52.110;6.050;2023-05-07T03:28:46;4.45;;;4.05;;
37411;SDS011;23278;52.110;6.050;2023-05-07T03:31:15;4.78;;;3.75;;
37411;SDS011;23278;52.110;6.050;2023-05-07T03:33:54;4.25;;;3.80;;
37411;SDS011;23278;52.110;6.050;2023-05-07T03:36:23;4.20;;;3.80;;
37411;SDS011;23278;52.110;6.050;2023-05-07T03:38:49;4.20;;;3.78;;
37411;SDS011;23278;52.110;6.050;2023-05-07T03:41:19;4.18;;;3.78;;
37411;SDS011;23278;52.110;6.050;2023-05-07T03:43:46;3.75;;;3.35;;
37411;SDS011;23278;52.110;6.050;2023-05-07T03:46:12;4.93;;;4.43;;
37411;SDS011;23278;52.110;6.050;2023-05-07T03:48:40;5.70;;;5.13;;
37411;SDS011;23278;52.110;6.050;2023-05-07T03:51:06;5.80;;;5.10;;
37411;SDS011;23278;52.110;6.050;2023-05-07T03:53:33;6.50;;;4.82;;
37411;SDS011;23278;52.110;6.050;2023-05-07T03:55:59;8.13;;;5.70;;
37411;SDS011;23278;52.110;6.050;2023-05-07T03:58:27;6.03;;;5.53;;
37411;SDS011;23278;52.110;6.050;2023-05-07T04:00:56;7.40;;;6.70;;
37411;SDS011;23278;52.110;6.050;2023-05-07T04:03:26;6.00;;;5.40;;
37411;SDS011;23278;52.110;6.050;2023-05-07T04:05:55;6.25;;;5.65;;
37411;SDS011;23278;52.110;6.050;2023-05-07T04:08:22;7.55;;;5.50;;
37411;SDS011;23278;52.110;6.050;2023-05-07T04:10:55;7.65;;;5.57;;
37411;SDS011;23278;52.110;6.050;2023-05-07T04:13:23;5.95;;;4.72;;
37411;SDS011;23278;52.110;6.050;2023-05-07T04:15:50;6.65;;;5.97;;
37411;SDS011;23278;52.110;6.050;2023-05-07T04:18:18;7.00;;;6.35;;
37411;SDS011;23278;52.110;6.050;2023-05-07T04:20:47;5.55;;;5.15;;
37411;SDS011;23278;52.110;6.050;2023-05-07T04:23:16;4.35;;;3.95;;
37411;SDS011;23278;52.110;6.050;2023-05-07T04:25:42;6.15;;;5.45;;
37411;SDS011;23278;52.110;6.050;2023-05-07T04:28:31;7.05;;;6.05;;
37411;SDS011;23278;52.110;6.050;2023-05-07T04:30:57;7.47;;;6.88;;
37411;SDS011;23278;52.110;6.050;2023-05-07T04:33:25;5.85;;;5.35;;
37411;SDS011;23278;52.110;6.050;2023-05-07T04:35:51;6.03;;;5.53;;
37411;SDS011;23278;52.110;6.050;2023-05-07T04:38:17;7.32;;;5.88;;
37411;SDS011;23278;52.110;6.050;2023-05-07T04:40:44;6.22;;;5.35;;
37411;SDS011;23278;52.110;6.050;2023-05-07T04:43:16;6.30;;;5.70;;
37411;SDS011;23278;52.110;6.050;2023-05-07T04:45:47;7.37;;;6.80;;
37411;SDS011;23278;52.110;6.050;2023-05-07T04:48:14;6.05;;;5.55;;
37411;SDS011;23278;52.110;6.050;2023-05-07T04:50:41;6.78;;;6.18;;
37411;SDS011;23278;52.110;6.050;2023-05-07T04:53:08;7.25;;;6.65;;
37411;SDS011;23278;52.110;6.050;2023-05-07T04:55:34;7.60;;;6.90;;
37411;SDS011;23278;52.110;6.050;2023-05-07T04:58:02;5.93;;;5.43;;
37411;SDS011;23278;52.110;6.050;2023-05-07T05:00:31;6.90;;;6.30;;
37411;SDS011;23278;52.110;6.050;2023-05-07T05:02:58;6.13;;;5.55;;
37411;SDS011;23278;52.110;6.050;2023-05-07T05:05:24;6.40;;;5.90;;
37411;SDS011;23278;52.110;6.050;2023-05-07T05:07:52;4.97;;;4.57;;
37411;SDS011;23278;52.110;6.050;2023-05-07T05:10:19;5.68;;;5.25;;
37411;SDS011;23278;52.110;6.050;2023-05-07T05:12:45;7.50;;;6.80;;
37411;SDS011;23278;52.110;6.050;2023-05-07T05:15:12;9.38;;;8.48;;
37411;SDS011;23278;52.110;6.050;2023-05-07T05:17:38;7.82;;;7.22;;
37411;SDS011;23278;52.110;6.050;2023-05-07T05:20:05;10.02;;;9.23;;
37411;SDS011;23278;52.110;6.050;2023-05-07T05:22:33;9.32;;;8.50;;
37411;SDS011;23278;52.110;6.050;2023-05-07T05:25:00;9.70;;;8.75;;
37411;SDS011;23278;52.110;6.050;2023-05-07T05:27:26;8.50;;;7.70;;
37411;SDS011;23278;52.110;6.050;2023-05-07T05:29:53;7.68;;;7.07;;
37411;SDS011;23278;52.110;6.050;2023-05-07T05:32:19;9.00;;;8.30;;
37411;SDS011;23278;52.110;6.050;2023-05-07T05:34:45;8.23;;;7.55;;
37411;SDS011;23278;52.110;6.050;2023-05-07T05:37:11;9.50;;;8.60;;
37411;SDS011;23278;52.110;6.050;2023-05-07T05:39:37;9.90;;;9.10;;
37411;SDS011;23278;52.110;6.050;2023-05-07T05:42:05;8.70;;;8.00;;
37411;SDS011;23278;52.110;6.050;2023-05-07T05:44:33;8.23;;;7.57;;
37411;SDS011;23278;52.110;6.050;2023-05-07T05:46:59;7.95;;;7.28;;
37411;SDS011;23278;52.110;6.050;2023-05-07T05:49:26;11.07;;;9.07;;
37411;SDS011;23278;52.110;6.050;2023-05-07T05:51:52;9.38;;;8.57;;
37411;SDS011;23278;52.110;6.050;2023-05-07T05:54:20;8.50;;;7.82;;
37411;SDS011;23278;52.110;6.050;2023-05-07T05:56:47;8.57;;;7.78;;
37411;SDS011;23278;52.110;6.050;2023-05-07T05:59:13;9.60;;;8.68;;
37411;SDS011;23278;52.110;6.050;2023-05-07T06:01:40;8.80;;;8.00;;
37411;SDS011;23278;52.110;6.050;2023-05-07T06:04:06;7.63;;;6.93;;
37411;SDS011;23278;52.110;6.050;2023-05-07T06:06:33;8.65;;;7.85;;
37411;SDS011;23278;52.110;6.050;2023-05-07T06:09:00;8.80;;;7.90;;
37411;SDS011;23278;52.110;6.050;2023-05-07T06:11:33;8.13;;;7.43;;
37411;SDS011;23278;52.110;6.050;2023-05-07T06:13:59;10.15;;;9.23;;
37411;SDS011;23278;52.110;6.050;2023-05-07T06:16:27;10.55;;;9.52;;
37411;SDS011;23278;52.110;6.050;2023-05-07T06:18:53;11.02;;;9.65;;
37411;SDS011;23278;52.110;6.050;2023-05-07T06:21:19;11.60;;;10.52;;
37411;SDS011;23278;52.110;6.050;2023-05-07T06:23:45;9.70;;;8.80;;
37411;SDS011;23278;52.110;6.050;2023-05-07T06:26:11;10.38;;;9.27;;
37411;SDS011;23278;52.110;6.050;2023-05-07T06:28:41;8.43;;;7.68;;
37411;SDS011;23278;52.110;6.050;2023-05-07T06:31:14;10.98;;;10.07;;
37411;SDS011;23278;52.110;6.050;2023-05-07T06:33:45;12.15;;;10.43;;
37411;SDS011;23278;52.110;6.050;2023-05-07T06:36:11;11.95;;;9.70;;
37411;SDS011;23278;52.110;6.050;2023-05-07T06:38:38;11.48;;;10.38;;
37411;SDS011;23278;52.110;6.050;2023-05-07T06:41:05;11.18;;;9.43;;
37411;SDS011;23278;52.110;6.050;2023-05-07T06:43:32;9.73;;;8.85;;
37411;SDS011;23278;52.110;6.050;2023-05-07T06:46:17;11.65;;;10.48;;
37411;SDS011;23278;52.110;6.050;2023-05-07T06:48:43;7.85;;;7.15;;
37411;SDS011;23278;52.110;6.050;2023-05-07T06:51:09;10.63;;;8.95;;
37411;SDS011;23278;52.110;6.050;2023-05-07T06:53:35;12.50;;;10.82;;
37411;SDS011;23278;52.110;6.050;2023-05-07T06:56:02;13.25;;;11.95;;
37411;SDS011;23278;52.110;6.050;2023-05-07T06:58:28;9.80;;;8.80;;
37411;SDS011;23278;52.110;6.050;2023-05-07T07:00:55;11.75;;;10.00;;
37411;SDS011;23278;52.110;6.050;2023-05-07T07:03:22;11.02;;;9.95;;
37411;SDS011;23278;52.110;6.050;2023-05-07T07:05:51;9.70;;;8.80;;
37411;SDS011;23278;52.110;6.050;2023-05-07T07:08:18;12.25;;;10.00;;
37411;SDS011;23278;52.110;6.050;2023-05-07T07:10:46;14.00;;;11.25;;
37411;SDS011;23278;52.110;6.050;2023-05-07T07:13:13;11.40;;;10.30;;
37411;SDS011;23278;52.110;6.050;2023-05-07T07:15:39;11.60;;;10.35;;
37411;SDS011;23278;52.110;6.050;2023-05-07T07:18:06;12.38;;;10.10;;
37411;SDS011;23278;52.110;6.050;2023-05-07T07:20:32;11.18;;;10.15;;
37411;SDS011;23278;52.110;6.050;2023-05-07T07:22:58;10.68;;;9.32;;
37411;SDS011;23278;52.110;6.050;2023-05-07T07:25:25;10.90;;;9.88;;
37411;SDS011;23278;52.110;6.050;2023-05-07T07:27:52;10.88;;;9.77;;
37411;SDS011;23278;52.110;6.050;2023-05-07T07:30:19;10.85;;;9.52;;
37411;SDS011;23278;52.110;6.050;2023-05-07T07:32:47;8.95;;;8.07;;
37411;SDS011;23278;52.110;6.050;2023-05-07T07:35:14;8.45;;;7.65;;
37411;SDS011;23278;52.110;6.050;2023-05-07T07:37:41;10.25;;;9.25;;
37411;SDS011;23278;52.110;6.050;2023-05-07T07:40:07;9.13;;;8.32;;
37411;SDS011;23278;52.110;6.050;2023-05-07T07:42:35;10.68;;;8.60;;
37411;SDS011;23278;52.110;6.050;2023-05-07T07:45:01;12.60;;;11.30;;
37411;SDS011;23278;52.110;6.050;2023-05-07T07:47:31;14.52;;;10.48;;
37411;SDS011;23278;52.110;6.050;2023-05-07T07:49:57;10.70;;;9.70;;
37411;SDS011;23278;52.110;6.050;2023-05-07T07:52:23;10.48;;;9.48;;
37411;SDS011;23278;52.110;6.050;2023-05-07T07:54:50;10.32;;;9.18;;
37411;SDS011;23278;52.110;6.050;2023-05-07T07:57:15;12.95;;;11.70;;
37411;SDS011;23278;52.110;6.050;2023-05-07T07:59:42;11.68;;;10.55;;
37411;SDS011;23278;52.110;6.050;2023-05-07T08:02:10;10.60;;;9.30;;
37411;SDS011;23278;52.110;6.050;2023-05-07T08:04:36;10.02;;;9.13;;
37411;SDS011;23278;52.110;6.050;2023-05-07T08:07:04;11.75;;;10.68;;
37411;SDS011;23278;52.110;6.050;2023-05-07T08:09:34;13.38;;;10.05;;
37411;SDS011;23278;52.110;6.050;2023-05-07T08:12:02;11.10;;;9.75;;
37411;SDS011;23278;52.110;6.050;2023-05-07T08:14:31;11.48;;;9.85;;
37411;SDS011;23278;52.110;6.050;2023-05-07T08:16:58;10.02;;;9.02;;
37411;SDS011;23278;52.110;6.050;2023-05-07T08:19:24;9.88;;;8.88;;
37411;SDS011;23278;52.110;6.050;2023-05-07T08:21:50;9.48;;;8.20;;
37411;SDS011;23278;52.110;6.050;2023-05-07T08:24:17;10.60;;;9.60;;
37411;SDS011;23278;52.110;6.050;2023-05-07T08:26:45;10.43;;;9.35;;
37411;SDS011;23278;52.110;6.050;2023-05-07T08:29:11;13.48;;;9.43;;
37411;SDS011;23278;52.110;6.050;2023-05-07T08:31:37;10.18;;;9.13;;
37411;SDS011;23278;52.110;6.050;2023-05-07T08:34:06;9.98;;;8.98;;
37411;SDS011;23278;52.110;6.050;2023-05-07T08:36:35;10.63;;;9.65;;
37411;SDS011;23278;52.110;6.050;2023-05-07T08:39:01;12.82;;;11.30;;
37411;SDS011;23278;52.110;6.050;2023-05-07T08:41:27;9.73;;;8.80;;
37411;SDS011;23278;52.110;6.050;2023-05-07T08:43:53;10.45;;;9.43;;
37411;SDS011;23278;52.110;6.050;2023-05-07T08:46:25;7.53;;;6.82;;
37411;SDS011;23278;52.110;6.050;2023-05-07T08:48:55;8.60;;;7.57;;
37411;SDS011;23278;52.110;6.050;2023-05-07T08:51:21;6.40;;;5.82;;
37411;SDS011;23278;52.110;6.050;2023-05-07T08:53:49;6.53;;;5.93;;
37411;SDS011;23278;52.110;6.050;2023-05-07T08:56:21;13.02;;;7.95;;
37411;SDS011;23278;52.110;6.050;2023-05-07T08:58:48;6.32;;;5.72;;
37411;SDS011;23278;52.110;6.050;2023-05-07T09:01:15;7.82;;;6.95;;
37411;SDS011;23278;52.110;6.050;2023-05-07T09:03:45;8.85;;;7.20;;
37411;SDS011;23278;52.110;6.050;2023-05-07T09:06:13;10.43;;;7.88;;
37411;SDS011;23278;52.110;6.050;2023-05-07T09:08:43;9.85;;;8.95;;
37411;SDS011;23278;52.110;6.050;2023-05-07T09:11:19;10.45;;;8.43;;
37411;SDS011;23278;52.110;6.050;2023-05-07T09:13:47;7.88;;;5.75;;
37411;SDS011;23278;52.110;6.050;2023-05-07T09:16:14;6.90;;;6.30;;
37411;SDS011;23278;52.110;6.050;2023-05-07T09:18:44;6.43;;;5.82;;
37411;SDS011;23278;52.110;6.050;2023-05-07T09:21:15;7.45;;;6.38;;
37411;SDS011;23278;52.110;6.050;2023-05-07T09:23:44;6.70;;;6.05;;
37411;SDS011;23278;52.110;6.050;2023-05-07T09:26:10;8.30;;;6.80;;
37411;SDS011;23278;52.110;6.050;2023-05-07T09:28:41;7.30;;;6.22;;
37411;SDS011;23278;52.110;6.050;2023-05-07T09:31:10;5.97;;;5.45;;
37411;SDS011;23278;52.110;6.050;2023-05-07T09:33:37;6.30;;;5.35;;
37411;SDS011;23278;52.110;6.050;2023-05-07T09:36:05;6.57;;;5.93;;
37411;SDS011;23278;52.110;6.050;2023-05-07T09:38:33;7.43;;;6.72;;
37411;SDS011;23278;52.110;6.050;2023-05-07T09:41:04;6.25;;;5.65;;
37411;SDS011;23278;52.110;6.050;2023-05-07T09:43:42;6.55;;;5.88;;
37411;SDS011;23278;52.110;6.050;2023-05-07T09:46:14;6.05;;;5.45;;
37411;SDS011;23278;52.110;6.050;2023-05-07T09:48:47;8.73;;;7.82;;
37411;SDS011;23278;52.110;6.050;2023-05-07T09:51:24;5.07;;;4.57;;
37411;SDS011;23278;52.110;6.050;2023-05-07T09:53:56;6.50;;;5.90;;
37411;SDS011;23278;52.110;6.050;2023-05-07T09:56:23;5.28;;;4.75;;
37411;SDS011;23278;52.110;6.050;2023-05-07T09:58:51;5.25;;;4.38;;
37411;SDS011;23278;52.110;6.050;2023-05-07T10:01:20;6.18;;;5.57;;
37411;SDS011;23278;52.110;6.050;2023-05-07T10:03:48;5.13;;;4.72;;
37411;SDS011;23278;52.110;6.050;2023-05-07T10:06:19;4.60;;;4.20;;
37411;SDS011;23278;52.110;6.050;2023-05-07T10:08:46;4.47;;;4.07;;
37411;SDS011;23278;52.110;6.050;2023-05-07T10:11:13;6.57;;;5.22;;
37411;SDS011;23278;52.110;6.050;2023-05-07T10:13:42;5.53;;;3.47;;
37411;SDS011;23278;52.110;6.050;2023-05-07T10:16:09;6.88;;;6.18;;
37411;SDS011;23278;52.110;6.050;2023-05-07T10:18:41;5.18;;;4.32;;
37411;SDS011;23278;52.110;6.050;2023-05-07T10:21:18;4.85;;;4.45;;
37411;SDS011;23278;52.110;6.050;2023-05-07T10:23:51;4.47;;;4.05;;
37411;SDS011;23278;52.110;6.050;2023-05-07T10:26:24;5.88;;;5.22;;
37411;SDS011;23278;52.110;6.050;2023-05-07T10:28:54;5.63;;;5.07;;
37411;SDS011;23278;52.110;6.050;2023-05-07T10:34:19;6.70;;;6.13;;
37411;SDS011;23278;52.110;6.050;2023-05-07T10:36:49;4.80;;;4.30;;
37411;SDS011;23278;52.110;6.050;2023-05-07T10:39:15;6.70;;;4.57;;
37411;SDS011;23278;52.110;6.050;2023-05-07T10:41:42;5.93;;;4.68;;
37411;SDS011;23278;52.110;6.050;2023-05-07T10:44:09;4.90;;;4.15;;
37411;SDS011;23278;52.110;6.050;2023-05-07T10:46:36;5.40;;;4.90;;
37411;SDS011;23278;52.110;6.050;2023-05-07T10:49:13;5.07;;;4.57;;
37411;SDS011;23278;52.110;6.050;2023-05-07T10:52:11;5.03;;;4.28;;
37411;SDS011;23278;52.110;6.050;2023-05-07T10:55:18;4.32;;;3.95;;
37411;SDS011;23278;52.110;6.050;2023-05-07T10:57:47;7.32;;;6.43;;
37411;SDS011;23278;52.110;6.050;2023-05-07T11:05:45;5.82;;;5.32;;
37411;SDS011;23278;52.110;6.050;2023-05-07T11:08:24;5.70;;;4.63;;
37411;SDS011;23278;52.110;6.050;2023-05-07T11:10:59;6.90;;;4.50;;
37411;SDS011;23278;52.110;6.050;2023-05-07T11:13:45;4.97;;;4.50;;
37411;SDS011;23278;52.110;6.050;2023-05-07T11:16:32;6.15;;;5.53;;
37411;SDS011;23278;52.110;6.050;2023-05-07T11:19:17;4.93;;;4.40;;
37411;SDS011;23278;52.110;6.050;2023-05-07T11:25:19;4.80;;;4.30;;
37411;SDS011;23278;52.110;6.050;2023-05-07T11:27:49;4.72;;;4.20;;
37411;SDS011;23278;52.110;6.050;2023-05-07T11:30:18;3.85;;;3.42;;
37411;SDS011;23278;52.110;6.050;2023-05-07T11:32:47;5.67;;;3.47;;
37411;SDS011;23278;52.110;6.050;2023-05-07T11:35:15;4.47;;;3.63;;
37411;SDS011;23278;52.110;6.050;2023-05-07T11:37:43;5.18;;;2.40;;
37411;SDS011;23278;52.110;6.050;2023-05-07T11:40:11;4.53;;;3.88;;
37411;SDS011;23278;52.110;6.050;2023-05-07T11:42:39;3.10;;;2.50;;
37411;SDS011;23278;52.110;6.050;2023-05-07T11:45:07;4.65;;;3.47;;
37411;SDS011;23278;52.110;6.050;2023-05-07T11:47:34;4.32;;;3.92;;
37411;SDS011;23278;52.110;6.050;2023-05-07T11:50:04;4.35;;;3.40;;
37411;SDS011;23278;52.110;6.050;2023-05-07T11:52:35;4.38;;;3.83;;
37411;SDS011;23278;52.110;6.050;2023-05-07T11:55:02;4.50;;;4.10;;
37411;SDS011;23278;52.110;6.050;2023-05-07T11:57:30;6.47;;;3.22;;
37411;SDS011;23278;52.110;6.050;2023-05-07T11:59:58;4.50;;;3.65;;
37411;SDS011;23278;52.110;6.050;2023-05-07T12:02:27;4.97;;;3.45;;
37411;SDS011;23278;52.110;6.050;2023-05-07T12:04:53;5.80;;;2.80;;
37411;SDS011;23278;52.110;6.050;2023-05-07T12:07:20;4.53;;;4.13;;
37411;SDS011;23278;52.110;6.050;2023-05-07T12:09:47;4.80;;;3.00;;
37411;SDS011;23278;52.110;6.050;2023-05-07T12:12:13;3.40;;;2.90;;
37411;SDS011;23278;52.110;6.050;2023-05-07T12:14:44;4.05;;;3.15;;
37411;SDS011;23278;52.110;6.050;2023-05-07T12:17:11;3.97;;;2.33;;
37411;SDS011;23278;52.110;6.050;2023-05-07T12:19:39;3.25;;;2.78;;
37411;SDS011;23278;52.110;6.050;2023-05-07T12:22:08;3.88;;;3.40;;
37411;SDS011;23278;52.110;6.050;2023-05-07T12:25:17;5.03;;;4.10;;
37411;SDS011;23278;52.110;6.050;2023-05-07T12:27:25;5.23;;;3.17;;
37411;SDS011;23278;52.110;6.050;2023-05-07T12:29:51;4.88;;;4.18;;
37411;SDS011;23278;52.110;6.050;2023-05-07T12:32:18;5.53;;;3.13;;
37411;SDS011;23278;52.110;6.050;2023-05-07T12:34:49;5.35;;;4.43;;
37411;SDS011;23278;52.110;6.050;2023-05-07T12:37:16;4.30;;;2.42;;
37411;SDS011;23278;52.110;6.050;2023-05-07T12:39:49;4.80;;;3.72;;
37411;SDS011;23278;52.110;6.050;2023-05-07T12:42:32;5.40;;;4.05;;
37411;SDS011;23278;52.110;6.050;2023-05-07T12:45:34;3.47;;;2.28;;
37411;SDS011;23278;52.110;6.050;2023-05-07T12:47:54;3.42;;;3.03;;
37411;SDS011;23278;52.110;6.050;2023-05-07T12:50:21;3.50;;;2.95;;
37411;SDS011;23278;52.110;6.050;2023-05-07T12:52:47;3.75;;;2.60;;
37411;SDS011;23278;52.110;6.050;2023-05-07T12:55:14;3.53;;;2.70;;
37411;SDS011;23278;52.110;6.050;2023-05-07T12:57:41;4.07;;;3.70;;
37411;SDS011;23278;52.110;6.050;2023-05-07T13:00:13;2.60;;;2.38;;
37411;SDS011;23278;52.110;6.050;2023-05-07T13:02:40;3.63;;;2.13;;
37411;SDS011;23278;52.110;6.050;2023-05-07T13:05:11;3.35;;;2.47;;
37411;SDS011;23278;52.110;6.050;2023-05-07T13:07:37;5.28;;;3.60;;
37411;SDS011;23278;52.110;6.050;2023-05-07T13:10:03;3.50;;;2.75;;
37411;SDS011;23278;52.110;6.050;2023-05-07T13:12:30;4.38;;;3.30;;
37411;SDS011;23278;52.110;6.050;2023-05-07T13:14:56;5.28;;;2.95;;
37411;SDS011;23278;52.110;6.050;2023-05-07T13:17:22;5.30;;;4.13;;
37411;SDS011;23278;52.110;6.050;2023-05-07T13:19:47;5.60;;;5.10;;
37411;SDS011;23278;52.110;6.050;2023-05-07T13:22:14;5.15;;;4.25;;
37411;SDS011;23278;52.110;6.050;2023-05-07T13:24:40;4.43;;;3.63;;
37411;SDS011;23278;52.110;6.050;2023-05-07T13:27:08;5.22;;;4.22;;
37411;SDS011;23278;52.110;6.050;2023-05-07T13:29:34;4.28;;;3.45;;
37411;SDS011;23278;52.110;6.050;2023-05-07T13:32:00;7.03;;;5.63;;
37411;SDS011;23278;52.110;6.050;2023-05-07T13:34:27;4.43;;;3.45;;
37411;SDS011;23278;52.110;6.050;2023-05-07T13:36:53;4.63;;;4.22;;
37411;SDS011;23278;52.110;6.050;2023-05-07T13:39:20;3.97;;;3.53;;
37411;SDS011;23278;52.110;6.050;2023-05-07T13:41:46;5.40;;;4.90;;
37411;SDS011;23278;52.110;6.050;2023-05-07T13:44:12;4.45;;;3.55;;
37411;SDS011;23278;52.110;6.050;2023-05-07T13:46:38;4.07;;;3.67;;
37411;SDS011;23278;52.110;6.050;2023-05-07T13:49:04;4.75;;;3.38;;
37411;SDS011;23278;52.110;6.050;2023-05-07T13:51:30;4.80;;;4.13;;
37411;SDS011;23278;52.110;6.050;2023-05-07T13:53:56;4.22;;;3.45;;
37411;SDS011;23278;52.110;6.050;2023-05-07T13:56:23;4.97;;;3.25;;
37411;SDS011;23278;52.110;6.050;2023-05-07T13:58:49;4.55;;;4.13;;
37411;SDS011;23278;52.110;6.050;2023-05-07T14:01:15;4.28;;;3.88;;
37411;SDS011;23278;52.110;6.050;2023-05-07T14:03:41;4.60;;;3.13;;
37411;SDS011;23278;52.110;6.050;2023-05-07T14:06:07;4.72;;;3.70;;
37411;SDS011;23278;52.110;6.050;2023-05-07T14:08:33;5.30;;;4.70;;
37411;SDS011;23278;52.110;6.050;2023-05-07T14:10:59;4.78;;;4.30;;
37411;SDS011;23278;52.110;6.050;2023-05-07T14:13:25;4.43;;;3.70;;
37411;SDS011;23278;52.110;6.050;2023-05-07T14:15:52;4.95;;;3.65;;
37411;SDS011;23278;52.110;6.050;2023-05-07T14:18:18;4.55;;;2.97;;
37411;SDS011;23278;52.110;6.050;2023-05-07T14:20:44;5.32;;;4.07;;
37411;SDS011;23278;52.110;6.050;2023-05-07T14:23:11;4.60;;;4.10;;
37411;SDS011;23278;52.110;6.050;2023-05-07T14:25:37;3.60;;;2.70;;
37411;SDS011;23278;52.110;6.050;2023-05-07T14:28:04;4.18;;;2.95;;
37411;SDS011;23278;52.110;6.050;2023-05-07T14:30:30;4.68;;;3.47;;
37411;SDS011;23278;52.110;6.050;2023-05-07T14:32:56;5.75;;;3.95;;
37411;SDS011;23278;52.110;6.050;2023-05-07T14:35:22;3.58;;;2.85;;
37411;SDS011;23278;52.110;6.050;2023-05-07T14:37:48;3.97;;;3.25;;
37411;SDS011;23278;52.110;6.050;2023-05-07T14:40:14;3.28;;;2.97;;
37411;SDS011;23278;52.110;6.050;2023-05-07T14:42:41;5.30;;;4.25;;
37411;SDS011;23278;52.110;6.050;2023-05-07T14:45:07;3.60;;;3.30;;
37411;SDS011;23278;52.110;6.050;2023-05-07T14:47:33;4.75;;;4.22;;
37411;SDS011;23278;52.110;6.050;2023-05-07T14:50:00;7.35;;;6.65;;
37411;SDS011;23278;52.110;6.050;2023-05-07T14:52:26;8.20;;;7.43;;
37411;SDS011;23278;52.110;6.050;2023-05-07T14:54:52;7.03;;;6.32;;
37411;SDS011;23278;52.110;6.050;2023-05-07T14:57:18;10.23;;;8.43;;
37411;SDS011;23278;52.110;6.050;2023-05-07T14:59:44;10.25;;;7.95;;
37411;SDS011;23278;52.110;6.050;2023-05-07T15:02:12;8.82;;;7.78;;